M I D A S
Marine Information and Data Acquisition System
Tripno 877 of the Zeeleeuw from 2005-04-05 07:01:00 to 2005-04-05 10:52:00
Back to CruiseResearch ActivitiesStationsMapUnderway DataData graphs

EquipmentUnitsComments
TimeDGPSUTC
LatitudeDGPSDM.mWGS84
LongitudeDGPSDM.mWGS84
SpeedMeteo Stationm/sRelative wind speed
DirectionMeteo StationdegRelative wind direction
TemperatureMeteo Stationdeg CelciusAir temperature
PressureMeteo StationPaAtmospheric pressure
HumidityMeteo Station%Relative humidity
Missing or incorrect values are displayed as -999
Metereological data collected by the RV Zeeleeuw from 2005-04-05 07:01:10 to 2005-04-05 10:52:35
Time Latitude Longitude Speed Direction Temperature Pressure Humidity
2005-04-05 07:02 51°13.621 2°56.013 4.8 183 7.9 102490 81
2005-04-05 07:03 51°13.658 2°55.904 5.8 182 7.8 102490 80
2005-04-05 07:04 51°13.68 2°55.785 4.1 194 7.8 102490 80
2005-04-05 07:05 51°13.692 2°55.76 3.2 250 7.9 102500 80
2005-04-05 07:06 51°13.745 2°55.732 3.5 332 8 102500 79
2005-04-05 07:07 51°13.8 2°55.665 4.9 343 8.1 102490 79
2005-04-05 07:08 51°13.858 2°55.607 3.7 1 8.1 102500 79
2005-04-05 07:09 51°13.925 2°55.538 7 323 8.1 102490 79
2005-04-05 07:10 51°13.972 2°55.483 2.3 19 8.1 102490 79
2005-04-05 07:11 51°13.996 2°55.456 2.3 284 8.1 102490 79
2005-04-05 07:12 51°14.009 2°55.45 2.2 227 8.1 102500 79
2005-04-05 07:13 51°14.011 2°55.448 2.7 288 8.2 102500 79
2005-04-05 07:14 51°14.011 2°55.448 2.2 294 8.2 102500 79
2005-04-05 07:15 51°14.011 2°55.447 1.8 292 8.2 102500 79
2005-04-05 07:16 51°14.012 2°55.448 2.7 278 8.3 102500 79
2005-04-05 07:17 51°14.01 2°55.447 2.6 278 8.4 102490 79
2005-04-05 07:18 51°14.008 2°55.446 1.9 294 8.4 102500 79
2005-04-05 07:19 51°14.01 2°55.448 1.6 255 8.4 102490 79
2005-04-05 07:20 51°14.011 2°55.449 4.3 266 8.4 102490 79
2005-04-05 07:21 51°14.011 2°55.449 3.8 239 8.3 102500 79
2005-04-05 07:22 51°14.01 2°55.448 3.7 283 8.2 102490 79
2005-04-05 07:23 51°14.01 2°55.448 4.1 263 8.2 102500 80
2005-04-05 07:24 51°14.009 2°55.447 4.9 247 8.1 102500 80
2005-04-05 07:25 51°14.01 2°55.447 3 262 8 102500 80
2005-04-05 07:26 51°14.01 2°55.447 3.8 254 8 102500 80
2005-04-05 07:27 51°14.012 2°55.449 3.2 275 7.9 102500 80
2005-04-05 07:28 51°14.012 2°55.448 4.2 249 7.9 102500 79
2005-04-05 07:29 51°14.013 2°55.449 2.7 273 7.9 102500 79
2005-04-05 07:30 51°14.012 2°55.449 2.7 249 7.9 102500 80
2005-04-05 07:31 51°14.012 2°55.448 2.3 262 8 102500 80
2005-04-05 07:32 51°14.012 2°55.449 0.2 162 8 102490 80
2005-04-05 07:33 51°14.012 2°55.449 2.5 265 8.1 102500 80
2005-04-05 07:34 51°14.012 2°55.448 1.6 233 8.1 102500 79
2005-04-05 07:35 51°14.011 2°55.449 1.4 225 8.1 102500 79
2005-04-05 07:36 51°14.01 2°55.447 2 242 8.1 102500 79
2005-04-05 07:37 51°14.011 2°55.448 1.6 199 8.1 102500 78
2005-04-05 07:38 51°14.01 2°55.447 2.2 261 8.1 102500 78
2005-04-05 07:39 51°14.012 2°55.449 1.3 248 8.1 102500 79
2005-04-05 07:40 51°14.012 2°55.448 1.6 246 8.2 102500 79
2005-04-05 07:41 51°14.013 2°55.449 2 257 8.2 102500 79
2005-04-05 07:42 51°14.013 2°55.449 1.6 241 8.2 102500 79
2005-04-05 07:43 51°14.012 2°55.449 1.2 227 8.3 102500 79
2005-04-05 07:44 51°14.012 2°55.448 2.1 252 8.3 102500 79
2005-04-05 07:45 51°14.011 2°55.448 2.1 257 8.4 102500 78
2005-04-05 07:46 51°14.012 2°55.448 2.1 262 8.4 102500 78
2005-04-05 07:47 51°14.011 2°55.448 3.1 218 8.4 102500 78
2005-04-05 07:48 51°14.011 2°55.448 1.8 246 8.4 102500 78
2005-04-05 07:49 51°14.011 2°55.448 2.4 252 8.5 102500 77
2005-04-05 07:50 51°14.011 2°55.448 3.2 262 8.5 102500 77
2005-04-05 07:51 51°14.011 2°55.447 2.8 248 8.5 102510 77
2005-04-05 07:52 51°14.011 2°55.447 2.3 256 8.5 102510 77
2005-04-05 07:53 51°14.011 2°55.448 1.1 214 8.6 102500 77
2005-04-05 07:54 51°14.012 2°55.448 0.4 194 8.6 102510 77
2005-04-05 07:55 51°14.012 2°55.448 0.6 260 8.7 102510 77
2005-04-05 07:56 51°14.012 2°55.448 0.8 176 8.8 102510 77
2005-04-05 07:57 51°14.013 2°55.448 0.4 220 8.8 102500 76
2005-04-05 07:58 51°14.013 2°55.448 3 287 8.8 102500 77
2005-04-05 07:59 51°14.012 2°55.448 3.1 259 8.8 102510 76
2005-04-05 08:00 51°14.012 2°55.448 3.7 272 8.7 102510 76
2005-04-05 08:01 51°14.012 2°55.447 2.8 262 8.6 102510 76
2005-04-05 08:02 51°14.011 2°55.447 2.5 243 8.6 102500 76
2005-04-05 08:03 51°14.011 2°55.447 1.7 263 8.6 102510 77
2005-04-05 08:04 51°14.011 2°55.447 2.6 240 8.7 102510 77
2005-04-05 08:05 51°14.011 2°55.447 1 260 8.8 102510 77
2005-04-05 08:06 51°14.012 2°55.448 0.6 169 8.8 102510 77
2005-04-05 08:07 51°14.012 2°55.447 2.5 196 8.9 102510 77
2005-04-05 08:08 51°14.012 2°55.448 0.5 208 9 102510 76
2005-04-05 08:09 51°14.012 2°55.448 2.2 250 9.1 102510 76
2005-04-05 08:10 51°14.013 2°55.448 1.1 253 9.1 102510 75
2005-04-05 08:11 51°14.013 2°55.448 1.6 222 9.2 102510 75
2005-04-05 08:12 51°14.012 2°55.448 0.4 252 9.2 102510 75
2005-04-05 08:13 51°14.012 2°55.448 0.4 178 9.3 102510 75
2005-04-05 08:14 51°14.012 2°55.448 0.7 202 9.4 102510 75
2005-04-05 08:15 51°14.012 2°55.447 1 193 9.4 102510 74
2005-04-05 08:16 51°14.011 2°55.447 1.8 187 9.4 102510 74
2005-04-05 08:17 51°14.011 2°55.448 2.3 236 9.4 102510 74
2005-04-05 08:18 51°14.011 2°55.448 2.2 208 9.3 102510 73
2005-04-05 08:19 51°14.011 2°55.448 2 188 9.2 102510 74
2005-04-05 08:20 51°14.011 2°55.448 1.1 196 9.1 102520 74
2005-04-05 08:21 51°14.011 2°55.448 1.2 262 9.2 102520 74
2005-04-05 08:22 51°14.011 2°55.448 2.3 267 9.3 102520 73
2005-04-05 08:23 51°14.011 2°55.448 1.6 275 9.4 102520 73
2005-04-05 08:24 51°14.011 2°55.448 0.6 282 9.4 102510 73
2005-04-05 08:25 51°14.011 2°55.448 1.1 256 9.5 102510 73
2005-04-05 08:26 51°14.011 2°55.447 0.4 276 9.5 102510 73
2005-04-05 08:27 51°14.01 2°55.447 3.7 255 9.5 102510 72
2005-04-05 08:28 51°14.01 2°55.447 3.4 265 9.5 102520 71
2005-04-05 08:29 51°14.011 2°55.448 3 265 9.4 102520 72
2005-04-05 08:30 51°14.011 2°55.448 2.9 259 9.4 102520 72
2005-04-05 08:31 51°14.011 2°55.447 1.4 293 9.4 102520 72
2005-04-05 08:32 51°14.01 2°55.447 1.4 256 9.4 102520 71
2005-04-05 08:33 51°14.01 2°55.446 1.4 244 9.5 102530 70
2005-04-05 08:34 51°14.01 2°55.446 2.1 263 9.5 102530 70
2005-04-05 08:35 51°14.01 2°55.445 1.8 256 9.5 102530 70
2005-04-05 08:36 51°14.01 2°55.446 1.8 290 9.5 102530 70
2005-04-05 08:37 51°14.01 2°55.446 2.9 298 9.5 102530 70
2005-04-05 08:38 51°14.01 2°55.446 4 296 9.5 102530 70
2005-04-05 08:39 51°14.011 2°55.448 3.1 278 9.4 102530 69
2005-04-05 08:40 51°14.012 2°55.449 2.3 254 9.4 102540 70
2005-04-05 08:41 51°14.012 2°55.448 2.1 247 9.3 102540 69
2005-04-05 08:42 51°14.012 2°55.449 2.2 252 9.3 102540 69
2005-04-05 08:43 51°14.012 2°55.448 1.7 259 9.3 102540 70
2005-04-05 08:44 51°14.011 2°55.447 2.8 273 9.4 102540 70
2005-04-05 08:45 51°14.011 2°55.448 2.4 247 9.4 102540 70
2005-04-05 08:46 51°14.012 2°55.448 4.3 267 9.3 102550 67
2005-04-05 08:47 51°14.011 2°55.448 2.5 261 9.2 102540 68
2005-04-05 08:48 51°14.012 2°55.448 2.7 278 9.2 102550 68
2005-04-05 08:49 51°14.012 2°55.448 1.5 262 9.2 102540 69
2005-04-05 08:50 51°14.012 2°55.448 2.8 252 9.2 102540 69
2005-04-05 08:51 51°14.012 2°55.448 2.7 274 9.3 102550 68
2005-04-05 08:52 51°14.012 2°55.448 3 249 9.3 102540 67
2005-04-05 08:53 51°14.011 2°55.448 3.1 260 9.4 102540 66
2005-04-05 08:54 51°14.011 2°55.448 3.5 234 9.4 102540 65
2005-04-05 08:55 51°14.011 2°55.448 2.6 245 9.4 102540 65
2005-04-05 08:56 51°14.011 2°55.448 1 245 9.5 102540 66
2005-04-05 08:57 51°14.012 2°55.448 2.1 230 9.5 102540 65
2005-04-05 08:58 51°14.011 2°55.447 2.7 236 9.5 102540 65
2005-04-05 08:59 51°14.011 2°55.448 4.2 272 9.5 102550 67
2005-04-05 09:00 51°14.011 2°55.448 3.8 260 9.5 102540 66
2005-04-05 09:01 51°14.011 2°55.448 1 217 9.5 102540 70
2005-04-05 09:02 51°14.011 2°55.448 1.9 3 9.6 102540 68
2005-04-05 09:03 51°14.011 2°55.448 2.2 265 9.7 102540 64
2005-04-05 09:04 51°14.011 2°55.448 1.9 264 9.8 102540 64
2005-04-05 09:05 51°14.011 2°55.448 2.6 265 10 102540 64
2005-04-05 09:06 51°14.011 2°55.448 1.4 267 10.2 102540 62
2005-04-05 09:07 51°14.011 2°55.448 3.4 237 10.3 102540 59
2005-04-05 09:08 51°14.011 2°55.447 2.1 255 10.3 102550 59
2005-04-05 09:09 51°14.011 2°55.448 2.3 300 10.3 102550 58
2005-04-05 09:10 51°14.012 2°55.447 1.7 253 10.3 102550 59
2005-04-05 09:11 51°14.012 2°55.447 2.2 275 10.4 102550 59
2005-04-05 09:12 51°14.012 2°55.447 2.5 288 10.4 102550 59
2005-04-05 09:13 51°14.012 2°55.446 2.6 294 10.3 102550 60
2005-04-05 09:14 51°14.012 2°55.447 1.2 275 10.3 102550 61
2005-04-05 09:15 51°14.012 2°55.446 4.5 287 10.3 102550 61
2005-04-05 09:16 51°14.011 2°55.447 3.9 287 10.3 102550 60
2005-04-05 09:17 51°14.011 2°55.447 4.8 288 10.3 102550 60
2005-04-05 09:18 51°14.011 2°55.447 4.1 289 10.2 102550 60
2005-04-05 09:19 51°14.011 2°55.447 1.9 253 10.2 102550 59
2005-04-05 09:20 51°14.011 2°55.447 2 241 10.1 102550 58
2005-04-05 09:21 51°14.011 2°55.448 1 261 10.2 102550 59
2005-04-05 09:22 51°14.011 2°55.449 2.9 259 10.2 102550 59
2005-04-05 09:23 51°14.011 2°55.448 2 304 10.3 102550 58
2005-04-05 09:24 51°14.011 2°55.448 2.6 210 10.3 102550 59
2005-04-05 09:25 51°14.011 2°55.448 3.3 255 10.3 102550 56
2005-04-05 09:26 51°14.011 2°55.447 2.8 255 10.4 102550 56
2005-04-05 09:27 51°14.011 2°55.447 1.9 270 10.3 102550 54
2005-04-05 09:28 51°14.01 2°55.447 1.5 256 10.3 102550 55
2005-04-05 09:29 51°14.01 2°55.447 4.6 279 10.3 102560 56
2005-04-05 09:30 51°14.01 2°55.447 5.4 285 10.3 102560 57
2005-04-05 09:31 51°14.01 2°55.448 5.5 283 10.3 102550 56
2005-04-05 09:32 51°14.01 2°55.448 3.7 270 10.2 102560 58
2005-04-05 09:33 51°14.011 2°55.447 4.9 298 10.2 102560 59
2005-04-05 09:34 51°14.011 2°55.447 3.5 261 10.1 102560 59
2005-04-05 09:35 51°14.011 2°55.447 5.8 288 10 102560 59
2005-04-05 09:36 51°14.012 2°55.447 4.6 275 9.8 102560 57
2005-04-05 09:37 51°14.012 2°55.448 1.9 261 9.8 102560 59
2005-04-05 09:38 51°14.011 2°55.448 2.8 294 9.8 102560 58
2005-04-05 09:39 51°14.011 2°55.448 3.1 291 9.8 102560 60
2005-04-05 09:40 51°14.011 2°55.448 3.7 281 9.9 102560 59
2005-04-05 09:41 51°14.011 2°55.448 3.1 283 9.9 102560 58
2005-04-05 09:42 51°14.011 2°55.448 2.1 265 9.9 102560 58
2005-04-05 09:43 51°14.011 2°55.448 2.1 335 10 102560 58
2005-04-05 09:44 51°14.011 2°55.447 2.1 261 10.1 102560 59
2005-04-05 09:45 51°14.011 2°55.447 4.5 286 10.2 102560 58
2005-04-05 09:46 51°14.011 2°55.447 2.4 271 10.2 102560 57
2005-04-05 09:47 51°14.011 2°55.448 3.1 290 10.2 102560 58
2005-04-05 09:48 51°14.011 2°55.448 4.7 283 10.2 102560 59
2005-04-05 09:49 51°14.011 2°55.448 3.4 278 10.2 102560 57
2005-04-05 09:50 51°14.011 2°55.447 2.4 248 10.3 102560 58
2005-04-05 09:51 51°14.01 2°55.447 2.4 259 10.2 102560 57
2005-04-05 09:52 51°14.01 2°55.448 2.8 259 10.2 102560 57
2005-04-05 09:53 51°14.01 2°55.448 4.2 270 10.1 102560 58
2005-04-05 09:54 51°14.01 2°55.447 6.2 277 10.1 102560 58
2005-04-05 09:55 51°14.01 2°55.447 4.7 262 10 102560 58
2005-04-05 09:56 51°14.011 2°55.448 3 278 10 102550 59
2005-04-05 09:57 51°14.011 2°55.448 5.6 283 10.1 102560 58
2005-04-05 09:58 51°14.01 2°55.448 3.3 257 10 102560 59
2005-04-05 09:59 51°14.011 2°55.449 4.6 244 10 102560 59
2005-04-05 10:00 51°14.011 2°55.449 1.6 257 10 102560 60
2005-04-05 10:01 51°14.011 2°55.448 3.4 285 9.9 102560 60
2005-04-05 10:02 51°14.011 2°55.449 2.6 298 10 102560 61
2005-04-05 10:03 51°14.011 2°55.448 7.1 290 10 102550 61
2005-04-05 10:04 51°14.012 2°55.45 2.7 242 10.1 102560 61
2005-04-05 10:05 51°14.012 2°55.449 0.8 313 10.2 102560 59
2005-04-05 10:06 51°14.011 2°55.448 3.5 283 10.2 102560 56
2005-04-05 10:07 51°14.011 2°55.449 4.1 291 10.1 102560 58
2005-04-05 10:08 51°14.011 2°55.449 3.1 260 10.2 102560 58
2005-04-05 10:09 51°14.011 2°55.449 1.3 258 10.3 102560 58
2005-04-05 10:10 51°14.012 2°55.449 4.9 281 10.4 102560 58
2005-04-05 10:11 51°14.011 2°55.449 3.8 290 10.4 102560 58
2005-04-05 10:12 51°14.012 2°55.449 5.5 277 10.3 102560 58
2005-04-05 10:13 51°14.011 2°55.448 1.8 306 10.1 102570 61
2005-04-05 10:14 51°14.011 2°55.449 3.9 289 10.1 102570 61
2005-04-05 10:15 51°14.011 2°55.449 3.4 273 10.1 102560 62
2005-04-05 10:16 51°14.012 2°55.449 6.4 287 10.1 102560 62
2005-04-05 10:17 51°13.998 2°55.47 4.1 202 10 102560 61
2005-04-05 10:18 51°13.944 2°55.53 5.4 280 10.1 102560 62
2005-04-05 10:19 51°13.901 2°55.569 1.6 277 10.1 102560 59
2005-04-05 10:20 51°13.892 2°55.574 2.8 16 10.1 102560 58
2005-04-05 10:21 51°13.889 2°55.571 0.7 152 10.2 102560 58
2005-04-05 10:22 51°13.893 2°55.568 0.7 80 10.3 102560 56
2005-04-05 10:23 51°13.915 2°55.558 2.1 330 10.4 102560 57
2005-04-05 10:24 51°13.966 2°55.537 6.8 308 10.5 102550 57
2005-04-05 10:25 51°14.024 2°55.498 5.2 320 10.4 102550 56
2005-04-05 10:26 51°14.078 2°55.459 3.6 7 10.3 102550 58
2005-04-05 10:27 51°14.126 2°55.426 3.2 44 10.3 102550 58
2005-04-05 10:28 51°14.178 2°55.389 3.4 306 10.2 102550 59
2005-04-05 10:29 51°14.223 2°55.34 5.9 313 10.2 102550 61
2005-04-05 10:30 51°14.264 2°55.271 5.7 320 10 102550 63
2005-04-05 10:31 51°14.306 2°55.184 5.6 320 9.8 102550 64
2005-04-05 10:32 51°14.358 2°55.059 8.2 335 9.6 102550 65
2005-04-05 10:33 51°14.406 2°54.81 11.1 354 9.4 102540 67
2005-04-05 10:34 51°14.434 2°54.499 11.2 354 9.2 102530 66
2005-04-05 10:35 51°14.474 2°54.208 9.2 359 9.1 102530 68
2005-04-05 10:36 51°14.406 2°54.126 6.1 66 9 102540 66
2005-04-05 10:37 51°14.382 2°54.261 1.9 186 8.8 102550 70
2005-04-05 10:38 51°14.431 2°54.419 1.4 218 8.8 102560 70
2005-04-05 10:39 51°14.455 2°54.632 2.9 92 8.9 102560 69
2005-04-05 10:40 51°14.414 2°54.925 4.7 63 8.9 102560 70
2005-04-05 10:41 51°14.312 2°55.189 5.4 50 8.7 102550 69
2005-04-05 10:42 51°14.214 2°55.346 4.8 66 8.7 102560 71
2005-04-05 10:43 51°14.118 2°55.425 2.9 92 8.8 102550 67
2005-04-05 10:44 51°14.021 2°55.496 3.8 83 9.1 102550 61
2005-04-05 10:45 51°13.927 2°55.564 4 65 9.3 102550 57
2005-04-05 10:46 51°13.832 2°55.633 3.7 347 9.6 102540 50
2005-04-05 10:47 51°13.748 2°55.723 2.1 91 9.9 102540 48
2005-04-05 10:48 51°13.689 2°55.823 3.3 122 10.2 102550 46
2005-04-05 10:49 51°13.648 2°55.917 3 141 10.3 102540 44
2005-04-05 10:50 51°13.618 2°56.004 3.2 173 10.4 102550 44
2005-04-05 10:51 51°13.602 2°56.069 2.6 198 10.5 102550 44
2005-04-05 10:52 51°13.593 2°56.102 3.9 186 10.7 102550 42